Time;durP1;ratioP1;P1;durP2;ratioP2;P2;SDS_P1;SDS_P2;PMS_P1;PMS_P2;Temp;Humidity;BMP_temperature;BMP_pressure;BME280_temperature;BME280_humidity;BME280_pressure;Samples;Min_cycle;Max_cycle;Signal;HPM_P1;HPM_P2
2022/10/19 00:00:47;;;;;;;8.45;3.88;;;;;;;11.91;65.89;102800.50;6186880;23;20017;-82
2022/10/19 00:03:12;;;;;;;9.38;3.83;;;;;;;11.79;67.49;102784.13;6187319;23;20320;-82
2022/10/19 00:05:37;;;;;;;7.85;4.00;;;;;;;11.72;66.50;102780.34;6211004;23;20460;-83
2022/10/19 00:08:03;;;;;;;9.40;3.10;;;;;;;11.70;66.00;102781.16;6185316;23;20012;-82
2022/10/19 00:10:28;;;;;;;4.68;2.90;;;;;;;11.51;66.46;102777.78;6187783;23;20059;-82
2022/10/19 00:12:54;;;;;;;6.25;2.88;;;;;;;11.31;67.03;102776.16;6187170;23;20328;-82
2022/10/19 00:15:19;;;;;;;9.60;3.38;;;;;;;11.36;68.12;102781.63;6186933;23;20081;-82
2022/10/19 00:17:44;;;;;;;7.88;2.70;;;;;;;11.36;67.05;102774.56;6186774;23;20451;-82
2022/10/19 00:20:11;;;;;;;8.75;3.45;;;;;;;11.34;68.19;102759.47;6187076;23;20337;-82
2022/10/19 00:22:36;;;;;;;8.50;3.95;;;;;;;11.46;68.77;102781.13;6187090;23;20355;-86
2022/10/19 00:25:02;;;;;;;6.60;3.10;;;;;;;11.46;68.61;102783.75;6187114;23;20132;-82
2022/10/19 00:27:28;;;;;;;3.47;2.60;;;;;;;11.56;66.91;102782.34;6186641;23;20009;-82
2022/10/19 00:29:53;;;;;;;11.57;4.20;;;;;;;11.54;70.40;102783.19;6211444;23;20032;-82
2022/10/19 00:32:19;;;;;;;6.10;3.08;;;;;;;11.47;67.94;102778.50;6185161;23;20013;-82
2022/10/19 00:34:44;;;;;;;7.97;3.10;;;;;;;11.43;66.53;102760.69;6187532;23;20005;-83
2022/10/19 00:37:09;;;;;;;6.15;3.05;;;;;;;11.43;67.65;102762.44;6185567;23;20005;-82
2022/10/19 00:39:35;;;;;;;9.27;3.30;;;;;;;11.43;69.01;102763.34;6187156;23;20005;-82
2022/10/19 00:42:00;;;;;;;7.60;3.20;;;;;;;11.45;67.98;102763.44;6186487;23;20005;-82
2022/10/19 00:44:29;;;;;;;12.43;3.72;;;;;;;11.42;69.13;102763.31;6160434;23;20063;-81
2022/10/19 00:47:02;;;;;;;8.13;3.50;;;;;;;11.32;69.31;102766.47;6186873;23;20051;-82
2022/10/19 00:49:34;;;;;;;11.23;3.85;;;;;;;11.26;71.16;102757.44;6186926;23;20009;-82
2022/10/19 00:52:19;;;;;;;;;;;;;;;11.46;69.97;102765.22;6186807;23;20320;-82
2022/10/19 00:54:47;;;;;;;11.23;4.10;;;;;;;11.22;72.35;102770.47;6186418;23;19927;-83
2022/10/19 00:57:14;;;;;;;8.18;4.15;;;;;;;11.23;73.19;102774.94;6186780;23;20005;-82
2022/10/19 00:59:41;;;;;;;8.48;4.05;;;;;;;11.19;74.98;102773.00;6187048;23;20004;-82
2022/10/19 01:02:07;;;;;;;10.20;4.47;;;;;;;11.14;74.45;102774.59;6210484;23;20325;-82
2022/10/19 01:04:36;;;;;;;8.45;4.15;;;;;;;11.11;74.78;102777.09;6210398;23;20017;-82
2022/10/19 01:07:03;;;;;;;10.30;4.70;;;;;;;11.04;75.26;102774.19;6186303;23;20036;-82
2022/10/19 01:09:29;;;;;;;10.80;4.15;;;;;;;11.05;75.33;102777.78;6186412;23;20009;-82
2022/10/19 01:12:19;;;;;;;11.02;4.45;;;;;;;11.06;76.13;102773.38;6186611;23;20016;-82
2022/10/19 01:15:15;;;;;;;14.10;4.70;;;;;;;11.05;75.75;102769.84;6186968;23;20012;-82
2022/10/19 01:17:56;;;;;;;9.70;4.13;;;;;;;11.03;76.18;102768.84;6187050;23;20061;-82
2022/10/19 01:20:31;;;;;;;13.85;4.47;;;;;;;11.04;76.66;102770.66;6186551;23;20005;-82
2022/10/19 01:23:18;;;;;;;9.45;4.30;;;;;;;10.99;77.00;102773.13;6186871;23;20008;-82
2022/10/19 01:26:19;;;;;;;10.68;4.00;;;;;;;11.01;76.28;102771.44;6186591;23;20082;-83
2022/10/19 01:28:44;;;;;;;8.48;4.10;;;;;;;11.00;76.42;102774.91;6186909;23;20419;-82
2022/10/19 01:31:31;;;;;;;10.98;4.15;;;;;;;11.05;76.63;102772.47;6186721;23;20016;-82
2022/10/19 01:34:18;;;;;;;9.48;4.20;;;;;;;11.01;76.49;102768.81;6184872;23;20009;-82
2022/10/19 01:36:56;;;;;;;11.32;4.22;;;;;;;11.07;76.21;102772.53;6186531;23;20027;-82
2022/10/19 01:39:28;;;;;;;9.48;4.05;;;;;;;11.15;76.68;102773.75;6185807;23;20013;-82
2022/10/19 01:42:04;;;;;;;8.17;4.13;;;;;;;11.17;75.98;102762.34;6186835;23;20005;-82
2022/10/19 01:44:39;;;;;;;12.65;4.20;;;;;;;11.09;76.09;102758.53;6186426;23;20066;-82
2022/10/19 01:47:13;;;;;;;9.07;4.13;;;;;;;11.07;75.50;102761.94;6186306;23;20008;-82
2022/10/19 01:49:48;;;;;;;9.15;4.22;;;;;;;11.00;76.01;102764.34;6160942;23;20016;-82
2022/10/19 01:52:16;;;;;;;10.82;4.22;;;;;;;10.94;75.95;102761.47;6186621;23;20013;-82
2022/10/19 01:54:49;;;;;;;11.57;4.78;;;;;;;10.96;76.37;102775.66;6186103;23;20001;-82
2022/10/19 01:57:22;;;;;;;6.40;3.70;;;;;;;11.00;75.73;102763.44;6186680;23;20001;-82
2022/10/19 01:59:49;;;;;;;10.82;4.28;;;;;;;10.93;76.21;102750.81;6186573;23;20447;-82
2022/10/19 02:02:16;;;;;;;10.63;3.97;;;;;;;10.91;76.08;102753.38;6186756;23;20006;-82
2022/10/19 02:04:42;;;;;;;8.43;3.85;;;;;;;10.94;76.20;102756.16;6186128;23;20332;-82
2022/10/19 02:07:09;;;;;;;10.10;4.15;;;;;;;10.95;75.58;102752.66;6186099;23;20013;-82
2022/10/19 02:09:34;;;;;;;9.45;4.00;;;;;;;10.85;76.37;102739.03;6186264;23;20424;-82
2022/10/19 02:12:04;;;;;;;9.88;4.15;;;;;;;10.76;76.88;102729.00;6186153;23;20055;-82
2022/10/19 02:14:36;;;;;;;11.07;4.30;;;;;;;10.76;76.77;102729.00;6186234;23;20012;-82
2022/10/19 02:17:08;;;;;;;10.97;4.30;;;;;;;10.69;77.21;102730.47;6186446;23;20001;-82
2022/10/19 02:19:33;;;;;;;11.93;4.20;;;;;;;10.71;77.57;102722.63;6186293;23;20055;-82
2022/10/19 02:21:59;;;;;;;10.90;4.55;;;;;;;10.58;77.19;102721.22;6187289;23;20339;-82
2022/10/19 02:24:24;;;;;;;11.50;4.32;;;;;;;10.58;77.47;102717.66;6188193;23;20388;-82
2022/10/19 02:26:51;;;;;;;9.88;4.40;;;;;;;10.53;77.52;102712.19;6188436;23;20016;-83
2022/10/19 02:29:16;;;;;;;9.40;4.20;;;;;;;10.50;77.89;102723.56;6188142;23;20020;-82
2022/10/19 02:31:42;;;;;;;12.75;4.20;;;;;;;10.48;78.74;102724.31;6187565;23;20020;-82
2022/10/19 02:34:09;;;;;;;9.55;4.32;;;;;;;10.40;78.96;102707.22;6189080;23;20144;-82
2022/10/19 02:36:34;;;;;;;9.55;4.15;;;;;;;10.34;78.76;102705.25;6188056;23;20060;-82
2022/10/19 02:39:00;;;;;;;11.30;4.22;;;;;;;10.33;79.09;102705.19;6188387;23;20319;-82
2022/10/19 02:41:35;;;;;;;9.38;4.20;;;;;;;10.23;79.40;102702.09;6188016;23;20069;-82
2022/10/19 02:44:06;;;;;;;11.10;4.15;;;;;;;10.27;79.02;102701.44;6188717;23;20519;-82
2022/10/19 02:46:39;;;;;;;10.05;3.95;;;;;;;10.32;79.29;102706.00;6186424;23;20016;-82
2022/10/19 02:49:08;;;;;;;10.48;3.85;;;;;;;10.31;79.10;102704.22;6188330;23;20009;-82
2022/10/19 02:51:36;;;;;;;8.63;3.97;;;;;;;10.30;79.02;102707.69;6187508;23;20424;-82
2022/10/19 02:54:04;;;;;;;10.43;4.10;;;;;;;10.26;78.83;102699.63;6188157;23;20031;-81
2022/10/19 02:56:29;;;;;;;9.35;4.07;;;;;;;10.25;78.88;102707.50;6161717;23;20009;-82
2022/10/19 02:58:55;;;;;;;9.95;4.20;;;;;;;10.17;78.97;102698.31;6161487;23;20357;-82
2022/10/19 03:01:21;;;;;;;11.20;3.97;;;;;;;10.14;79.39;102706.13;6187705;23;20028;-82
2022/10/19 03:03:46;;;;;;;11.10;4.45;;;;;;;10.11;79.12;102703.38;6187375;23;20012;-82
2022/10/19 03:06:12;;;;;;;11.18;4.00;;;;;;;10.20;79.25;102717.84;6188021;23;20009;-82
2022/10/19 03:08:38;;;;;;;10.77;4.00;;;;;;;10.24;78.72;102709.25;6187755;23;20365;-82
2022/10/19 03:11:05;;;;;;;11.82;4.50;;;;;;;10.25;78.16;102702.22;6185751;23;20313;-82
2022/10/19 03:13:31;;;;;;;10.07;3.80;;;;;;;10.26;78.61;102710.22;6187710;23;20301;-82
2022/10/19 03:15:56;;;;;;;7.95;3.80;;;;;;;10.25;78.77;102708.41;6187593;23;20033;-82
2022/10/19 03:18:21;;;;;;;8.63;4.00;;;;;;;10.20;78.16;102704.66;6188242;23;20016;-82
2022/10/19 03:20:47;;;;;;;11.50;4.05;;;;;;;10.21;77.93;102706.44;6187941;23;20036;-82
2022/10/19 03:23:12;;;;;;;7.03;3.83;;;;;;;10.15;78.45;102698.28;6187534;23;20005;-82
2022/10/19 03:25:38;;;;;;;8.68;3.78;;;;;;;10.11;79.04;102703.38;6187792;23;20013;-82
2022/10/19 03:28:04;;;;;;;9.68;4.05;;;;;;;10.09;79.14;102702.38;6186003;23;20017;-82
2022/10/19 03:30:29;;;;;;;8.40;3.83;;;;;;;10.06;79.27;102700.50;6161336;23;20347;-82
2022/10/19 03:32:54;;;;;;;11.50;4.20;;;;;;;10.05;78.87;102698.69;6187414;23;20020;-82
2022/10/19 03:35:20;;;;;;;7.63;3.75;;;;;;;10.04;78.73;102700.44;6187281;23;20017;-82
2022/10/19 03:37:45;;;;;;;8.70;3.80;;;;;;;10.02;79.24;102691.56;6187508;23;20324;-82
2022/10/19 03:40:11;;;;;;;7.78;3.50;;;;;;;10.04;79.37;102695.16;6188112;23;20423;-82
2022/10/19 03:42:36;;;;;;;15.43;3.90;;;;;;;10.03;78.53;102696.00;6187376;23;20009;-82
2022/10/19 03:45:03;;;;;;;8.02;3.67;;;;;;;10.02;78.51;102695.91;6187707;23;20005;-82
2022/10/19 03:47:28;;;;;;;8.50;3.50;;;;;;;10.09;78.34;102699.75;6187349;23;20023;-83
2022/10/19 03:49:53;;;;;;;8.57;3.47;;;;;;;10.10;77.17;102699.78;6187311;23;20088;-81
2022/10/19 03:52:19;;;;;;;8.00;3.45;;;;;;;10.11;76.71;102706.00;6185765;23;20005;-82
2022/10/19 03:54:48;;;;;;;7.70;3.45;;;;;;;10.07;76.26;102707.59;6187246;23;20005;-81
2022/10/19 03:57:14;;;;;;;8.43;3.42;;;;;;;10.06;76.13;102702.25;6187326;23;20001;-81
2022/10/19 03:59:39;;;;;;;7.15;3.88;;;;;;;10.06;76.67;102705.78;6187241;23;20043;-81
2022/10/19 04:02:05;;;;;;;8.07;3.30;;;;;;;10.13;76.02;102702.56;6187632;23;20080;-81
2022/10/19 04:04:30;;;;;;;10.25;3.85;;;;;;;10.11;76.75;102708.66;6187261;23;20005;-82
2022/10/19 04:06:55;;;;;;;7.25;3.65;;;;;;;10.08;76.96;102713.78;6186945;23;20335;-81
2022/10/19 04:09:22;;;;;;;10.10;3.90;;;;;;;10.03;77.53;102708.31;6185603;23;20063;-81
2022/10/19 04:11:48;;;;;;;11.73;4.30;;;;;;;9.99;77.31;102711.66;6187128;23;20019;-82
2022/10/19 04:14:16;;;;;;;9.75;4.80;;;;;;;9.91;77.52;102715.69;6187439;23;20044;-82
2022/10/19 04:16:42;;;;;;;11.85;6.00;;;;;;;9.92;76.41;102718.41;6187091;23;20001;-82
2022/10/19 04:19:08;;;;;;;9.27;4.63;;;;;;;10.00;76.47;102710.81;6187359;23;20009;-82
2022/10/19 04:21:36;;;;;;;9.00;3.92;;;;;;;9.97;77.22;102702.75;6185493;23;20016;-82
2022/10/19 04:24:07;;;;;;;9.55;3.72;;;;;;;9.98;76.64;102704.59;6186629;23;20152;-83
2022/10/19 04:26:38;;;;;;;9.30;4.07;;;;;;;9.78;77.22;102696.69;6187441;23;20005;-82
2022/10/19 04:29:03;;;;;;;9.63;3.90;;;;;;;9.70;77.75;102700.72;6161440;23;20001;-82
2022/10/19 04:31:28;;;;;;;8.02;4.07;;;;;;;9.67;78.73;102694.41;6163608;23;20021;-82
2022/10/19 04:33:55;;;;;;;13.30;4.40;;;;;;;9.63;78.71;102701.28;6187374;23;20068;-82
2022/10/19 04:36:20;;;;;;;11.80;4.13;;;;;;;9.66;79.09;102700.53;6186354;23;20071;-82
2022/10/19 04:38:46;;;;;;;8.32;3.90;;;;;;;9.65;78.78;102693.44;6186494;23;20047;-82
2022/10/19 04:41:14;;;;;;;16.67;4.72;;;;;;;9.69;78.34;102698.94;6184815;23;20016;-82
2022/10/19 04:43:39;;;;;;;10.07;3.92;;;;;;;9.71;78.91;102697.25;6186359;23;20009;-82
2022/10/19 04:46:08;;;;;;;8.80;4.28;;;;;;;9.67;78.69;102697.03;6186759;23;20013;-82
2022/10/19 04:48:35;;;;;;;11.48;4.38;;;;;;;9.67;78.65;102697.03;6186744;23;20079;-82
2022/10/19 04:51:00;;;;;;;9.57;4.20;;;;;;;9.65;78.68;102702.25;6186770;23;20005;-82
2022/10/19 04:53:26;;;;;;;10.93;4.60;;;;;;;9.69;78.63;102712.13;6186372;23;20494;-81
2022/10/19 04:55:51;;;;;;;13.73;4.80;;;;;;;9.68;78.95;102694.50;6186252;23;20048;-82
2022/10/19 04:58:17;;;;;;;13.43;4.65;;;;;;;9.75;78.93;102696.53;6186746;23;20060;-81
2022/10/19 05:00:42;;;;;;;8.25;4.22;;;;;;;9.82;77.98;102696.81;6184913;23;20009;-81
2022/10/19 05:03:08;;;;;;;8.35;4.40;;;;;;;9.79;78.32;102693.19;6210066;23;20346;-81
2022/10/19 05:05:34;;;;;;;17.63;4.30;;;;;;;9.80;78.51;102702.03;6186489;23;20086;-83
2022/10/19 05:07:59;;;;;;;13.98;4.90;;;;;;;9.81;77.92;102695.00;6186293;23;20016;-81
2022/10/19 05:10:25;;;;;;;10.63;4.93;;;;;;;9.77;78.07;102692.25;6186672;23;20009;-82
2022/10/19 05:12:50;;;;;;;9.48;4.28;;;;;;;9.83;77.96;102694.25;6186633;23;20059;-81
2022/10/19 05:15:16;;;;;;;8.85;4.88;;;;;;;9.71;78.43;102694.59;6185230;23;20494;-82
2022/10/19 05:17:41;;;;;;;16.73;4.70;;;;;;;9.59;78.54;102699.31;6184633;23;20009;-82
2022/10/19 05:20:07;;;;;;;14.20;4.72;;;;;;;9.56;78.93;102701.84;6184514;23;20017;-82
2022/10/19 05:22:33;;;;;;;12.07;4.88;;;;;;;9.46;79.61;102691.69;6186343;23;20431;-82
2022/10/19 05:24:58;;;;;;;12.95;5.18;;;;;;;9.43;80.01;102684.56;6185011;23;20033;-82
2022/10/19 05:27:24;;;;;;;10.20;5.32;;;;;;;9.46;80.34;102692.63;6159941;23;20328;-82
2022/10/19 05:29:49;;;;;;;9.20;5.03;;;;;;;9.47;79.99;102694.44;6186385;23;20009;-82
2022/10/19 05:32:14;;;;;;;11.07;5.30;;;;;;;9.47;80.11;102699.72;6186575;23;20040;-82
2022/10/19 05:34:40;;;;;;;10.48;5.38;;;;;;;9.53;80.06;102689.41;6186341;23;20059;-83
2022/10/19 05:37:06;;;;;;;11.00;5.15;;;;;;;9.60;79.67;102685.31;6186207;23;20447;-82
2022/10/19 05:39:31;;;;;;;14.25;5.57;;;;;;;9.64;79.33;102675.81;6184795;23;20009;-82
2022/10/19 05:41:56;;;;;;;9.40;5.20;;;;;;;9.65;79.16;102669.69;6186381;23;20005;-82
2022/10/19 05:44:23;;;;;;;7.93;5.00;;;;;;;9.60;78.65;102668.59;6186256;23;20016;-82
2022/10/19 05:46:50;;;;;;;11.52;5.10;;;;;;;9.54;79.02;102671.84;6186274;23;20494;-82
2022/10/19 05:49:18;;;;;;;11.23;4.97;;;;;;;9.43;79.76;102668.75;6186644;23;20009;-82
2022/10/19 05:51:43;;;;;;;11.52;5.20;;;;;;;9.40;80.54;102667.69;6185911;23;20032;-82
2022/10/19 05:54:10;;;;;;;9.52;5.53;;;;;;;9.32;80.45;102677.91;6184710;23;20005;-83
2022/10/19 05:56:36;;;;;;;10.75;5.28;;;;;;;9.26;80.70;102675.00;6186318;23;20009;-81
2022/10/19 05:59:04;;;;;;;9.23;5.43;;;;;;;9.27;81.28;102677.69;6186361;23;20009;-82
2022/10/19 06:01:31;;;;;;;18.77;5.50;;;;;;;9.29;80.92;102680.38;6185886;23;20008;-82
2022/10/19 06:03:58;;;;;;;15.13;5.18;;;;;;;9.28;80.87;102674.22;6186578;23;20009;-82
2022/10/19 06:06:24;;;;;;;11.95;5.57;;;;;;;9.27;80.60;102674.16;6186243;23;20072;-82
2022/10/19 06:08:51;;;;;;;10.73;5.10;;;;;;;9.28;81.70;102675.94;6186859;23;20005;-82
2022/10/19 06:11:22;;;;;;;11.00;5.40;;;;;;;9.09;80.84;102663.69;6186159;23;20012;-82
2022/10/19 06:13:50;;;;;;;9.57;5.43;;;;;;;9.08;81.51;102667.16;6159521;23;20009;-82
2022/10/19 06:16:18;;;;;;;9.88;5.47;;;;;;;9.08;81.97;102658.31;6185782;23;20040;-82
2022/10/19 06:18:44;;;;;;;15.13;6.10;;;;;;;9.13;82.31;102662.09;6160464;23;20080;-82
2022/10/19 06:21:12;;;;;;;9.27;5.65;;;;;;;9.05;83.41;102659.09;6185944;23;20040;-82
2022/10/19 06:23:38;;;;;;;13.07;5.78;;;;;;;9.00;82.20;102661.53;6186865;23;20039;-82
2022/10/19 06:26:07;;;;;;;11.90;5.65;;;;;;;8.94;82.09;102642.75;6134720;23;20017;-82
2022/10/19 06:28:33;;;;;;;8.23;5.47;;;;;;;9.03;83.17;102658.09;6160398;23;20005;-82
2022/10/19 06:30:59;;;;;;;10.43;5.90;;;;;;;8.98;82.30;102660.53;6185954;23;20012;-82
2022/10/19 06:33:25;;;;;;;10.07;5.53;;;;;;;9.00;82.94;102657.97;6186943;23;20079;-82
2022/10/19 06:35:50;;;;;;;8.85;5.85;;;;;;;9.06;83.11;102655.63;6159550;23;20068;-82
2022/10/19 06:38:15;;;;;;;11.55;5.85;;;;;;;9.12;82.82;102661.19;6186689;23;20013;-82
2022/10/19 06:40:41;;;;;;;12.90;6.20;;;;;;;9.18;83.13;102668.47;6159778;23;20013;-82
2022/10/19 06:43:06;;;;;;;11.40;6.18;;;;;;;9.21;82.08;102666.88;6185739;23;20009;-82
2022/10/19 06:45:32;;;;;;;11.60;6.18;;;;;;;9.41;83.10;102665.13;6186284;23;20009;-82
2022/10/19 06:47:59;;;;;;;11.45;6.47;;;;;;;9.59;82.89;102667.66;6186277;23;20017;-82
2022/10/19 06:50:24;;;;;;;10.15;5.70;;;;;;;9.85;82.12;102674.09;6185991;23;20075;-82
2022/10/19 06:52:50;;;;;;;9.98;6.15;;;;;;;10.05;81.80;102672.28;6185921;23;20005;-82
2022/10/19 06:55:16;;;;;;;13.52;5.93;;;;;;;10.28;80.99;102673.31;6185770;23;20428;-82
2022/10/19 06:57:42;;;;;;;12.20;6.18;;;;;;;10.37;80.24;102673.69;6184109;23;20455;-82
2022/10/19 07:00:08;;;;;;;12.38;5.93;;;;;;;10.56;79.50;102677.06;6134897;23;20009;-82
2022/10/19 07:02:34;;;;;;;12.18;6.10;;;;;;;10.67;79.07;102674.00;6184171;23;20005;-82
2022/10/19 07:04:59;;;;;;;11.55;5.68;;;;;;;10.72;78.33;102674.19;6185456;23;20016;-82
2022/10/19 07:07:24;;;;;;;11.80;6.75;;;;;;;10.74;78.34;102667.19;6184939;23;20328;-82
2022/10/19 07:09:50;;;;;;;11.30;5.57;;;;;;;10.74;78.63;102669.84;6186761;23;20013;-82
2022/10/19 07:12:16;;;;;;;11.98;6.40;;;;;;;10.75;78.36;102667.28;6187536;23;20096;-83
2022/10/19 07:14:41;;;;;;;10.80;5.60;;;;;;;10.70;78.29;102668.81;6188067;23;20005;-82
2022/10/19 07:17:08;;;;;;;11.15;5.63;;;;;;;10.65;78.42;102670.38;6187251;23;20005;-82
2022/10/19 07:19:34;;;;;;;12.23;5.65;;;;;;;10.67;78.67;102673.09;6188503;23;20008;-82
2022/10/19 07:21:59;;;;;;;9.77;6.47;;;;;;;10.73;79.23;102676.88;6137022;23;20008;-82
2022/10/19 07:24:25;;;;;;;13.20;6.85;;;;;;;10.76;78.95;102658.50;6186384;23;20123;-82
2022/10/19 07:26:50;;;;;;;11.18;6.90;;;;;;;10.97;79.20;102678.69;6187240;23;20017;-82
2022/10/19 07:29:15;;;;;;;13.32;5.90;;;;;;;10.97;77.88;102676.03;6188425;23;20001;-82
2022/10/19 07:31:41;;;;;;;9.05;5.65;;;;;;;11.14;78.86;102682.88;6163535;23;20023;-82
2022/10/19 07:34:12;;;;;;;14.73;6.72;;;;;;;11.24;79.26;102679.72;6188816;23;20005;-82
2022/10/19 07:36:38;;;;;;;14.65;5.85;;;;;;;11.41;77.63;102675.06;6185887;23;20072;-82
2022/10/19 07:39:06;;;;;;;12.63;5.75;;;;;;;11.54;77.40;102685.25;6186396;23;20005;-82
2022/10/19 07:41:33;;;;;;;10.50;5.43;;;;;;;11.69;77.41;102679.63;6187525;23;20035;-82
2022/10/19 07:44:00;;;;;;;9.70;5.30;;;;;;;11.82;76.41;102678.31;6187736;23;20009;-83
2022/10/19 07:46:35;;;;;;;10.95;5.88;;;;;;;11.98;76.09;102670.03;6187626;23;20009;-82
2022/10/19 07:49:03;;;;;;;9.50;5.32;;;;;;;12.20;75.84;102652.22;6187807;23;20005;-83
2022/10/19 07:51:28;;;;;;;10.93;5.50;;;;;;;12.29;75.93;102655.19;6185732;23;20009;-83
2022/10/19 07:53:54;;;;;;;11.68;5.53;;;;;;;12.38;75.02;102641.34;6187332;23;20060;-82
2022/10/19 07:56:24;;;;;;;10.80;5.93;;;;;;;12.69;75.76;102646.75;6187289;23;20009;-83
2022/10/19 07:58:51;;;;;;;11.60;5.68;;;;;;;12.88;74.00;102648.19;6187431;23;20443;-83
2022/10/19 08:01:19;;;;;;;11.65;4.90;;;;;;;13.18;73.18;102648.19;6160916;23;20017;-84
2022/10/19 08:03:45;;;;;;;10.30;4.78;;;;;;;13.56;72.84;102645.75;6187353;23;20009;-84
2022/10/19 08:06:15;;;;;;;10.93;5.13;;;;;;;13.96;70.62;102647.72;6185192;23;20045;-84
2022/10/19 08:08:42;;;;;;;10.77;4.97;;;;;;;14.17;69.56;102647.34;6187255;23;20404;-83
2022/10/19 08:11:13;;;;;;;8.52;4.82;;;;;;;14.38;69.51;102644.31;6187257;23;20001;-83
2022/10/19 08:13:39;;;;;;;10.85;4.70;;;;;;;14.52;67.89;102637.59;6187327;23;20005;-83
2022/10/19 08:16:20;;;;;;;8.82;4.80;;;;;;;14.69;68.95;102645.09;6187259;23;20009;-80
2022/10/19 08:18:46;;;;;;;10.32;4.13;;;;;;;15.00;66.94;102658.19;6188970;23;20012;-82
2022/10/19 08:21:12;;;;;;;9.68;4.50;;;;;;;15.21;65.63;102655.09;6187854;23;20009;-82
2022/10/19 08:23:37;;;;;;;12.98;4.25;;;;;;;15.58;65.29;102657.56;6187966;23;20073;-81
2022/10/19 08:26:03;;;;;;;13.18;4.68;;;;;;;16.00;65.50;102653.03;6188881;23;20077;-79
2022/10/19 08:28:28;;;;;;;11.38;4.43;;;;;;;16.33;62.45;102649.16;6187307;23;20021;-80
2022/10/19 08:30:57;;;;;;;13.00;4.43;;;;;;;16.76;61.76;102641.81;6186636;23;20404;-80
2022/10/19 08:33:25;;;;;;;9.82;4.10;;;;;;;17.01;60.39;102627.03;6189458;23;20021;-83
2022/10/19 08:35:52;;;;;;;12.10;5.28;;;;;;;17.11;62.40;102631.59;6161053;23;20005;-82
2022/10/19 08:38:18;;;;;;;7.72;3.70;;;;;;;17.26;59.48;102623.78;6161739;23;20044;-82
2022/10/19 08:40:44;;;;;;;9.55;3.88;;;;;;;17.37;58.44;102617.66;6186471;23;20091;-82
2022/10/19 08:43:28;;;;;;;9.00;3.70;;;;;;;17.53;60.20;102614.25;6186878;23;20013;-82
2022/10/19 08:46:17;;;;;;;8.80;3.58;;;;;;;17.66;58.73;102607.25;6186847;23;20001;-83
2022/10/19 08:48:43;;;;;;;10.98;3.65;;;;;;;17.66;57.65;102599.25;6185570;23;20454;-82
2022/10/19 08:51:12;;;;;;;14.07;5.68;;;;;;;17.66;57.66;102604.59;6186445;23;20005;-82
2022/10/19 08:53:59;;;;;;;9.50;3.45;;;;;;;17.56;57.61;102597.34;6184762;23;20092;-82
2022/10/19 08:56:37;;;;;;;8.85;3.50;;;;;;;17.28;58.68;102594.41;6187034;23;20080;-86
2022/10/19 08:59:08;;;;;;;10.30;3.50;;;;;;;17.18;58.11;102605.88;6187020;23;20001;-82
2022/10/19 09:01:58;;;;;;;9.77;3.33;;;;;;;17.05;59.77;102595.91;6186248;23;20337;-82
2022/10/19 09:04:35;;;;;;;10.70;3.30;;;;;;;17.20;59.12;102604.09;6186724;23;20005;-81
2022/10/19 09:07:21;;;;;;;8.63;3.13;;;;;;;17.32;58.58;102595.31;6186841;23;20013;-82
2022/10/19 09:10:17;;;;;;;7.88;3.10;;;;;;;17.75;58.68;102589.56;6186722;23;20340;-82
2022/10/19 09:12:54;;;;;;;10.55;3.25;;;;;;;18.24;57.73;102586.34;6161216;23;20004;-81
2022/10/19 09:15:27;;;;;;;9.73;3.10;;;;;;;18.54;55.00;102577.63;6186754;23;20009;-82
2022/10/19 09:17:52;;;;;;;;;;;;;;;18.98;56.53;102577.88;6187588;23;20143;-82
2022/10/19 09:20:23;;;;;;;9.55;3.08;;;;;;;19.01;52.77;102588.63;6186496;23;19971;-82
2022/10/19 09:23:02;;;;;;;12.45;3.28;;;;;;;18.92;53.49;102590.34;6186130;23;20004;-82
2022/10/19 09:25:29;;;;;;;9.27;2.83;;;;;;;18.76;53.07;102584.94;6186552;23;20049;-82
2022/10/19 09:28:21;;;;;;;10.40;3.00;;;;;;;18.89;53.69;102598.38;6186432;23;20009;-81
2022/10/19 09:30:50;;;;;;;7.47;2.83;;;;;;;18.97;53.06;102596.59;6187045;23;20005;-81
2022/10/19 09:33:25;;;;;;;7.43;2.85;;;;;;;18.96;52.43;102611.78;6187144;23;20543;-82
2022/10/19 09:35:52;;;;;;;9.95;2.70;;;;;;;18.29;52.13;102614.06;6186317;23;20008;-81
2022/10/19 09:38:21;;;;;;;8.55;3.00;;;;;;;17.86;53.05;102597.69;6187112;23;20005;-81
2022/10/19 09:40:46;;;;;;;10.35;2.70;;;;;;;17.71;53.63;102597.50;6184724;23;20009;-82
2022/10/19 09:43:19;;;;;;;10.00;3.00;;;;;;;17.65;53.96;102595.69;6186414;23;20009;-82
2022/10/19 09:46:05;;;;;;;8.05;2.75;;;;;;;17.75;54.43;102584.22;6186423;23;20037;-81
2022/10/19 09:48:51;;;;;;;7.43;2.75;;;;;;;18.21;54.58;102578.34;6186427;23;20068;-83
2022/10/19 09:51:18;;;;;;;8.35;2.65;;;;;;;18.29;52.80;102579.28;6186272;23;20482;-82
2022/10/19 09:53:45;;;;;;;9.95;2.88;;;;;;;18.50;52.59;102578.53;6186213;23;20332;-82
2022/10/19 09:56:19;;;;;;;8.00;2.83;;;;;;;18.60;52.17;102576.78;6185815;23;20423;-81
2022/10/19 09:58:50;;;;;;;8.65;3.13;;;;;;;18.72;52.85;102569.75;6186607;23;20364;-82
2022/10/19 10:01:36;;;;;;;8.85;2.83;;;;;;;18.85;52.27;102580.50;6186178;23;20001;-82
2022/10/19 10:04:12;;;;;;;7.70;2.88;;;;;;;18.94;52.43;102568.03;6187268;23;20005;-85
2022/10/19 10:06:39;;;;;;;9.82;2.97;;;;;;;19.09;51.73;102556.47;6186220;23;20079;-82
2022/10/19 10:09:04;;;;;;;9.60;2.88;;;;;;;19.19;51.74;102544.00;6186524;23;20458;-82
2022/10/19 10:11:37;;;;;;;7.90;2.80;;;;;;;19.12;51.22;102547.56;6186764;23;20005;-81
2022/10/19 10:14:30;;;;;;;10.88;2.90;;;;;;;19.01;51.28;102548.44;6186190;23;20475;-84
2022/10/19 10:17:02;;;;;;;9.70;2.92;;;;;;;18.87;50.68;102570.69;6176685;23;20012;-81
2022/10/19 10:19:30;;;;;;;10.00;2.70;;;;;;;18.74;50.72;102545.63;6186601;23;20001;-81
2022/10/19 10:21:56;;;;;;;9.85;2.90;;;;;;;18.39;51.19;102543.66;6159784;23;20012;-82
2022/10/19 10:24:26;;;;;;;13.82;3.03;;;;;;;18.26;51.86;102555.16;6136072;23;20021;-82
2022/10/19 10:26:57;;;;;;;14.23;3.35;;;;;;;18.10;52.23;102554.16;6159703;23;20389;-82
2022/10/19 10:29:29;;;;;;;11.02;2.80;;;;;;;18.18;52.93;102554.22;6185196;23;20071;-82
2022/10/19 10:32:16;;;;;;;9.85;3.05;;;;;;;18.20;51.68;102555.13;6186144;23;20017;-81
2022/10/19 10:34:47;;;;;;;10.45;3.20;;;;;;;18.27;52.41;102552.50;6185767;23;20433;-82
2022/10/19 10:37:28;;;;;;;8.10;3.20;;;;;;;18.36;52.15;102538.28;6186049;23;20001;-83
2022/10/19 10:39:56;;;;;;;11.27;3.13;;;;;;;18.49;52.44;102545.47;6160794;23;20108;-82
2022/10/19 10:42:29;;;;;;;11.02;3.22;;;;;;;18.83;52.17;102542.97;6187233;23;20005;-82
2022/10/19 10:44:55;;;;;;;9.80;3.10;;;;;;;19.13;50.84;102538.59;6161922;23;20335;-82
2022/10/19 10:47:21;;;;;;;9.75;3.17;;;;;;;19.16;49.10;102531.47;6187624;23;20005;-82
2022/10/19 10:50:05;;;;;;;7.65;2.90;;;;;;;19.32;50.36;102526.16;6188011;23;20020;-82
2022/10/19 10:52:32;;;;;;;10.25;3.42;;;;;;;19.45;48.95;102528.84;6187788;23;20005;-82
2022/10/19 10:55:13;;;;;;;12.43;3.47;;;;;;;19.12;49.18;102534.16;6187892;23;20036;-81
2022/10/19 10:57:44;;;;;;;9.55;3.20;;;;;;;19.19;49.61;102531.50;6187981;23;20008;-82
2022/10/19 11:00:16;;;;;;;14.07;3.30;;;;;;;19.15;49.20;102515.41;6187883;23;20092;-83
2022/10/19 11:03:03;;;;;;;11.82;3.30;;;;;;;19.29;49.00;102518.09;6161447;23;20005;-83
2022/10/19 11:05:40;;;;;;;10.40;3.35;;;;;;;19.29;49.24;102508.28;6188112;23;20065;-82
2022/10/19 11:08:11;;;;;;;11.05;3.38;;;;;;;19.17;48.98;102508.25;6187888;23;20032;-83
2022/10/19 11:10:59;;;;;;;11.80;3.23;;;;;;;19.32;49.50;102499.34;6187545;23;20067;-82
2022/10/19 11:13:32;;;;;;;15.45;3.42;;;;;;;19.38;48.12;102496.66;6188017;23;20008;-82
2022/10/19 11:16:11;;;;;;;9.88;3.28;;;;;;;19.44;47.98;102500.25;6188026;23;20032;-82
2022/10/19 11:18:45;;;;;;;10.55;3.33;;;;;;;19.43;47.74;102490.41;6188006;23;20001;-81
2022/10/19 11:21:36;;;;;;;12.52;3.55;;;;;;;19.56;48.39;102488.63;6187953;23;20008;-82
2022/10/19 11:24:14;;;;;;;13.18;3.58;;;;;;;19.58;47.16;102488.63;6177099;23;20036;-81
2022/10/19 11:27:04;;;;;;;12.23;3.53;;;;;;;19.64;47.18;102486.88;6161022;23;20021;-82
2022/10/19 11:29:44;;;;;;;12.93;3.67;;;;;;;19.68;47.28;102477.03;6187194;23;20005;-82
2022/10/19 11:32:51;;;;;;;10.13;3.75;;;;;;;19.73;47.68;102469.88;6187671;23;20036;-84
2022/10/19 11:35:36;;;;;;;11.23;3.55;;;;;;;19.59;47.82;102474.31;6161959;23;20092;-82